Terminal Aerodrome Forecast
Issued by NWS

Home | Current Version | Previous Version | Text Only | Print | Product List | Glossary On
Versions: 1 2 3 4 5 6 7 8 9 10 11 12 13 14 15 16 17 18 19 20 21 22 23
000
FTUS41 KBUF 222300 RRA
TAFJHW
TAF
KJHW 222343Z 2300/2324 15007KT P6SM OVC150
     FM230300 15005KT P6SM BKN050 OVC120
     FM230400 15006KT P6SM BKN035 OVC130
     FM230600 15007KT P6SM BKN015 OVC040
     FM231700 15013G22KT P6SM BKN040 OVC130
     FM232000 16012KT P6SM BKN040 OVC120
      AMD LTD TO CLD VIS AND WIND=

USA.gov is the U.S. government's official web portal to all federal, state and local government web resources and services.